Time;durP1;ratioP1;P1;durP2;ratioP2;P2;SDS_P1;SDS_P2;PMS_P1;PMS_P2;Temp;Humidity;BMP_temperature;BMP_pressure;BME280_temperature;BME280_humidity;BME280_pressure;Samples;Min_cycle;Max_cycle;Signal;HPM_P1;HPM_P2
2022/06/11 00:02:25;;;;;;;7.38;1.55;;;;;;;;;;5050051;28;20037;-75
2022/06/11 00:04:51;;;;;;;3.00;1.27;;;;;;;;;;5038490;28;20034;-75
2022/06/11 00:07:22;;;;;;;7.78;1.67;;;;;;;;;;5034760;28;20860;-75
2022/06/11 00:09:49;;;;;;;3.95;1.27;;;;;;;;;;5038415;28;20219;-74
2022/06/11 00:12:15;;;;;;;5.35;1.50;;;;;;;;;;5036903;28;20044;-75
2022/06/11 00:14:43;;;;;;;3.80;1.35;;;;;;;;;;5040904;28;20028;-74
2022/06/11 00:17:12;;;;;;;3.15;1.25;;;;;;;;;;5039676;28;20706;-75
2022/06/11 00:19:38;;;;;;;5.13;1.20;;;;;;;;;;5041644;28;20025;-75
2022/06/11 00:22:05;;;;;;;7.57;1.63;;;;;;;;;;5033055;28;20033;-75
2022/06/11 00:24:31;;;;;;;5.13;1.30;;;;;;;;;;5038326;28;20034;-75
2022/06/11 00:26:58;;;;;;;7.72;1.40;;;;;;;;;;5031723;28;20120;-75
2022/06/11 00:29:26;;;;;;;6.18;1.17;;;;;;;;;;5033715;28;20046;-75
2022/06/11 00:31:52;;;;;;;4.22;1.30;;;;;;;;;;5032509;28;20037;-74
2022/06/11 00:34:18;;;;;;;3.75;1.48;;;;;;;;;;5033074;28;20104;-75
2022/06/11 00:36:45;;;;;;;5.00;1.40;;;;;;;;;;5033587;28;20028;-75
2022/06/11 00:39:13;;;;;;;6.32;1.98;;;;;;;;;;5038948;28;20037;-74
2022/06/11 00:41:41;;;;;;;8.90;2.08;;;;;;;;;;5041332;28;20029;-75
2022/06/11 00:44:07;;;;;;;6.80;1.67;;;;;;;;;;5037957;28;20079;-75
2022/06/11 00:46:36;;;;;;;7.57;2.00;;;;;;;;;;5036804;28;20029;-75
2022/06/11 00:49:07;;;;;;;5.03;1.60;;;;;;;;;;5032913;28;20874;-75
2022/06/11 00:51:33;;;;;;;5.30;1.52;;;;;;;;;;5029826;28;20484;-74
2022/06/11 00:54:01;;;;;;;5.13;1.80;;;;;;;;;;5029786;28;20612;-75
2022/06/11 00:56:38;;;;;;;6.15;1.58;;;;;;;;;;5034047;28;20025;-75
2022/06/11 00:59:07;;;;;;;4.50;1.88;;;;;;;;;;5031362;28;20033;-74
2022/06/11 01:01:33;;;;;;;8.45;1.67;;;;;;;;;;5032387;28;20127;-74
2022/06/11 01:04:01;;;;;;;4.65;1.33;;;;;;;;;;5030038;28;20036;-75
2022/06/11 01:06:39;;;;;;;8.10;1.60;;;;;;;;;;5035374;28;20694;-74
2022/06/11 01:09:15;;;;;;;4.65;1.48;;;;;;;;;;5042759;28;20124;-74
2022/06/11 01:12:07;;;;;;;5.10;1.67;;;;;;;;;;5035128;28;20045;-74
2022/06/11 01:14:39;;;;;;;6.18;1.30;;;;;;;;;;5046749;28;20057;-74
2022/06/11 01:17:28;;;;;;;5.35;1.30;;;;;;;;;;5036943;28;20060;-74
2022/06/11 01:20:00;;;;;;;6.85;1.30;;;;;;;;;;5029701;28;20138;-75
2022/06/11 01:22:27;;;;;;;;;;;;;;;;;;5029424;28;20163;-75
2022/06/11 01:25:02;;;;;;;6.15;1.35;;;;;;;;;;5033152;28;19921;-74
2022/06/11 01:27:29;;;;;;;4.28;1.10;;;;;;;;;;5043977;28;20033;-75
2022/06/11 01:29:55;;;;;;;3.97;0.90;;;;;;;;;;5032609;28;20114;-74
2022/06/11 01:32:26;;;;;;;6.82;1.27;;;;;;;;;;5033442;28;20060;-74
2022/06/11 01:34:58;;;;;;;7.47;1.60;;;;;;;;;;5029897;28;20037;-75
2022/06/11 01:37:29;;;;;;;5.55;1.20;;;;;;;;;;5041127;28;20033;-74
2022/06/11 01:40:07;;;;;;;4.77;1.53;;;;;;;;;;5038901;28;20056;-75
2022/06/11 01:42:39;;;;;;;4.53;1.15;;;;;;;;;;5028946;28;20045;-75
2022/06/11 01:45:05;;;;;;;;;;;;;;;;;;5036462;28;20040;-75
2022/06/11 01:47:32;;;;;;;8.13;1.60;;;;;;;;;;5032269;28;19917;-75
2022/06/11 01:49:58;;;;;;;7.22;1.70;;;;;;;;;;5034279;28;20037;-74
2022/06/11 01:52:46;;;;;;;8.43;2.25;;;;;;;;;;5033296;28;20029;-74
2022/06/11 01:55:21;;;;;;;5.10;1.27;;;;;;;;;;5040277;28;20573;-74
2022/06/11 01:57:50;;;;;;;5.13;1.08;;;;;;;;;;5031059;28;20026;-74
2022/06/11 02:00:30;;;;;;;6.65;1.10;;;;;;;;;;5031549;28;20529;-74
2022/06/11 02:02:59;;;;;;;5.22;1.20;;;;;;;;;;5035791;28;20056;-75
2022/06/11 02:05:34;;;;;;;5.72;1.30;;;;;;;;;;5037156;28;20116;-74
2022/06/11 02:08:07;;;;;;;5.57;1.35;;;;;;;;;;5031053;28;20540;-74
2022/06/11 02:10:38;;;;;;;4.40;1.20;;;;;;;;;;5037203;28;20052;-75
2022/06/11 02:13:24;;;;;;;4.90;1.50;;;;;;;;;;5029822;28;20029;-75
2022/06/11 02:15:54;;;;;;;8.75;1.30;;;;;;;;;;5038050;28;20037;-74
2022/06/11 02:18:22;;;;;;;5.63;1.10;;;;;;;;;;5029068;28;20471;-74
2022/06/11 02:21:09;;;;;;;5.00;0.98;;;;;;;;;;5041304;28;20657;-75
2022/06/11 02:23:37;;;;;;;6.10;0.98;;;;;;;;;;5039975;28;20793;-74
2022/06/11 02:26:06;;;;;;;5.65;1.10;;;;;;;;;;5030827;28;20576;-75
2022/06/11 02:28:33;;;;;;;3.75;1.10;;;;;;;;;;5033286;28;20761;-74
2022/06/11 02:31:02;;;;;;;4.30;1.10;;;;;;;;;;5040713;28;20410;-75
2022/06/11 02:33:30;;;;;;;3.70;1.10;;;;;;;;;;5029598;28;20032;-75
2022/06/11 02:36:03;;;;;;;5.65;1.20;;;;;;;;;;5028730;28;20473;-75
2022/06/11 02:38:30;;;;;;;4.10;1.45;;;;;;;;;;5036945;28;20689;-75
2022/06/11 02:40:58;;;;;;;5.05;1.50;;;;;;;;;;5031611;28;20459;-75
2022/06/11 02:43:24;;;;;;;10.38;1.40;;;;;;;;;;5044509;28;20595;-75
2022/06/11 02:45:51;;;;;;;4.05;1.20;;;;;;;;;;5036113;28;20057;-75
2022/06/11 02:48:17;;;;;;;4.28;1.45;;;;;;;;;;5031188;28;20069;-75
2022/06/11 02:50:46;;;;;;;5.28;1.30;;;;;;;;;;5039047;28;20043;-75
2022/06/11 02:53:12;;;;;;;3.83;1.20;;;;;;;;;;5032997;28;20021;-75
2022/06/11 02:55:39;;;;;;;6.70;1.00;;;;;;;;;;5037936;28;20025;-75
2022/06/11 02:58:06;;;;;;;4.38;1.13;;;;;;;;;;5031371;28;20025;-74
2022/06/11 03:00:36;;;;;;;6.18;1.08;;;;;;;;;;5034452;28;20045;-75
2022/06/11 03:03:02;;;;;;;5.57;1.50;;;;;;;;;;5040571;28;20038;-75
2022/06/11 03:05:29;;;;;;;5.10;1.30;;;;;;;;;;5035489;28;20064;-75
2022/06/11 03:07:56;;;;;;;3.90;0.93;;;;;;;;;;5038790;28;20033;-75
2022/06/11 03:10:23;;;;;;;5.63;1.05;;;;;;;;;;5037111;28;20041;-75
2022/06/11 03:12:50;;;;;;;3.30;1.10;;;;;;;;;;5033233;28;20029;-75
2022/06/11 03:15:17;;;;;;;9.18;1.83;;;;;;;;;;5036783;28;20372;-74
2022/06/11 03:17:43;;;;;;;5.95;1.00;;;;;;;;;;5039643;28;20577;-75
2022/06/11 03:20:11;;;;;;;7.70;1.40;;;;;;;;;;5039938;28;20072;-75
2022/06/11 03:22:37;;;;;;;7.68;1.50;;;;;;;;;;5036306;28;20083;-74
2022/06/11 03:25:03;;;;;;;6.25;1.15;;;;;;;;;;5036756;28;20045;-75
2022/06/11 03:27:30;;;;;;;4.07;1.48;;;;;;;;;;5037090;28;20442;-75
2022/06/11 03:29:56;;;;;;;6.43;1.20;;;;;;;;;;5037471;28;20095;-74
2022/06/11 03:32:22;;;;;;;6.57;1.27;;;;;;;;;;5041685;28;20061;-75
2022/06/11 03:34:48;;;;;;;6.85;1.48;;;;;;;;;;5040202;28;20052;-75
2022/06/11 03:37:14;;;;;;;4.90;1.13;;;;;;;;;;5045543;28;20039;-75
2022/06/11 03:39:40;;;;;;;6.05;1.13;;;;;;;;;;5035798;28;20120;-74
2022/06/11 03:42:07;;;;;;;6.00;1.50;;;;;;;;;;5040188;28;20064;-74
2022/06/11 03:44:33;;;;;;;6.38;1.35;;;;;;;;;;5046809;28;20028;-75
2022/06/11 03:46:59;;;;;;;5.30;1.40;;;;;;;;;;5034130;28;20044;-75
2022/06/11 03:49:26;;;;;;;7.82;1.38;;;;;;;;;;5035625;28;20052;-74
2022/06/11 03:51:52;;;;;;;4.57;1.10;;;;;;;;;;5034836;28;20033;-75
2022/06/11 03:54:19;;;;;;;5.15;1.42;;;;;;;;;;5034060;28;20423;-75
2022/06/11 03:56:46;;;;;;;3.78;1.13;;;;;;;;;;5034616;28;20033;-75
2022/06/11 03:59:13;;;;;;;9.10;1.30;;;;;;;;;;5031135;28;20034;-75
2022/06/11 04:01:40;;;;;;;5.88;1.27;;;;;;;;;;5031555;28;20467;-75
2022/06/11 04:04:07;;;;;;;4.07;1.17;;;;;;;;;;5033858;28;20080;-75
2022/06/11 04:06:54;;;;;;;4.53;1.60;;;;;;;;;;5031019;28;20478;-74
2022/06/11 04:09:22;;;;;;;5.03;1.73;;;;;;;;;;5031689;28;20160;-74
2022/06/11 04:11:48;;;;;;;2.80;1.10;;;;;;;;;;5036195;28;20087;-75
2022/06/11 04:14:15;;;;;;;7.07;1.58;;;;;;;;;;5030487;28;20033;-74
2022/06/11 04:16:44;;;;;;;4.80;1.20;;;;;;;;;;5030573;28;20030;-75
2022/06/11 04:19:14;;;;;;;6.88;1.45;;;;;;;;;;5034409;28;20061;-74
2022/06/11 04:21:41;;;;;;;5.10;1.65;;;;;;;;;;5039524;28;20029;-75
2022/06/11 04:24:07;;;;;;;7.75;1.40;;;;;;;;;;5045737;28;20083;-74
2022/06/11 04:26:35;;;;;;;3.90;1.50;;;;;;;;;;5038922;28;20060;-74
2022/06/11 04:29:02;;;;;;;7.72;1.60;;;;;;;;;;5033832;28;20449;-74
2022/06/11 04:31:29;;;;;;;8.45;1.95;;;;;;;;;;5036529;28;20116;-74
2022/06/11 04:33:55;;;;;;;5.00;1.40;;;;;;;;;;5037094;28;20471;-74
2022/06/11 04:36:23;;;;;;;5.93;1.50;;;;;;;;;;5029510;28;20041;-75
2022/06/11 04:38:49;;;;;;;6.93;1.90;;;;;;;;;;5039436;28;20116;-75
2022/06/11 04:41:15;;;;;;;5.32;1.40;;;;;;;;;;5039168;28;20041;-74
2022/06/11 04:43:41;;;;;;;7.32;1.50;;;;;;;;;;5033764;28;20033;-74
2022/06/11 04:46:08;;;;;;;4.78;1.40;;;;;;;;;;5035812;28;20091;-75
2022/06/11 04:48:34;;;;;;;8.27;1.50;;;;;;;;;;5033902;28;20037;-74
2022/06/11 04:51:01;;;;;;;6.25;1.38;;;;;;;;;;5042607;28;20132;-74
2022/06/11 04:53:27;;;;;;;5.65;1.63;;;;;;;;;;5045111;28;20111;-74
2022/06/11 04:55:53;;;;;;;4.82;1.08;;;;;;;;;;5043645;28;20032;-74
2022/06/11 04:58:19;;;;;;;7.55;1.48;;;;;;;;;;5029950;28;20478;-75
2022/06/11 05:00:45;;;;;;;5.13;1.10;;;;;;;;;;5038775;28;20040;-74
2022/06/11 05:03:11;;;;;;;7.50;1.52;;;;;;;;;;5039660;28;20037;-74
2022/06/11 05:05:38;;;;;;;5.25;1.33;;;;;;;;;;5028953;28;20037;-74
2022/06/11 05:08:04;;;;;;;4.53;1.42;;;;;;;;;;5038314;28;20112;-75
2022/06/11 05:10:31;;;;;;;4.35;1.27;;;;;;;;;;5037766;28;20047;-74
2022/06/11 05:12:57;;;;;;;3.83;1.20;;;;;;;;;;5032192;28;20033;-75
2022/06/11 05:15:23;;;;;;;7.65;1.40;;;;;;;;;;5029750;28;20108;-74
2022/06/11 05:17:50;;;;;;;5.25;1.10;;;;;;;;;;5032968;28;20758;-75
2022/06/11 05:20:17;;;;;;;4.85;1.40;;;;;;;;;;5039726;28;20041;-75
2022/06/11 05:22:45;;;;;;;5.85;1.23;;;;;;;;;;5030312;28;20112;-75
2022/06/11 05:25:11;;;;;;;6.15;1.20;;;;;;;;;;5035486;28;20043;-75
2022/06/11 05:27:40;;;;;;;5.65;1.70;;;;;;;;;;5037729;28;20099;-75
2022/06/11 05:30:09;;;;;;;4.35;1.10;;;;;;;;;;5038155;28;20612;-75
2022/06/11 05:32:40;;;;;;;3.22;0.90;;;;;;;;;;5031047;28;20021;-75
2022/06/11 05:35:07;;;;;;;4.75;1.05;;;;;;;;;;5035866;28;20459;-75
2022/06/11 05:37:34;;;;;;;4.68;1.48;;;;;;;;;;5033378;28;20067;-75
2022/06/11 05:40:00;;;;;;;5.53;1.10;;;;;;;;;;5037228;28;20094;-75
2022/06/11 05:42:26;;;;;;;4.72;1.00;;;;;;;;;;5035518;28;20057;-75
2022/06/11 05:44:52;;;;;;;7.25;1.27;;;;;;;;;;5038013;28;20041;-74
2022/06/11 05:47:20;;;;;;;5.45;1.50;;;;;;;;;;5030155;28;20083;-75
2022/06/11 05:49:47;;;;;;;5.18;1.23;;;;;;;;;;5036004;28;20029;-75
2022/06/11 05:52:17;;;;;;;6.00;1.40;;;;;;;;;;5034491;28;20088;-75
2022/06/11 05:54:45;;;;;;;4.32;1.27;;;;;;;;;;5033893;28;20625;-75
2022/06/11 05:57:12;;;;;;;6.18;1.15;;;;;;;;;;5040070;28;20025;-75
2022/06/11 05:59:43;;;;;;;6.63;0.90;;;;;;;;;;5035132;28;20132;-75
2022/06/11 06:02:10;;;;;;;4.13;1.00;;;;;;;;;;5031096;28;20025;-75
2022/06/11 06:04:37;;;;;;;4.47;0.85;;;;;;;;;;5037735;28;20038;-75
2022/06/11 06:07:05;;;;;;;4.03;0.90;;;;;;;;;;5030183;28;20029;-75
2022/06/11 06:09:31;;;;;;;4.50;0.98;;;;;;;;;;5037833;28;20025;-75
2022/06/11 06:11:57;;;;;;;4.45;1.13;;;;;;;;;;5032593;28;20036;-75
2022/06/11 06:14:23;;;;;;;4.43;0.90;;;;;;;;;;5047335;28;20037;-75
2022/06/11 06:16:49;;;;;;;5.47;1.17;;;;;;;;;;5037865;28;20488;-75
2022/06/11 06:19:15;;;;;;;3.80;0.90;;;;;;;;;;5044617;28;20024;-75
2022/06/11 06:21:41;;;;;;;5.63;1.15;;;;;;;;;;5037020;28;20057;-75
2022/06/11 06:24:07;;;;;;;6.13;1.35;;;;;;;;;;5038463;28;20033;-76
2022/06/11 06:26:33;;;;;;;5.38;1.30;;;;;;;;;;5037384;28;20108;-75
2022/06/11 06:28:59;;;;;;;8.00;1.17;;;;;;;;;;5032221;28;20053;-75
2022/06/11 06:31:25;;;;;;;3.70;0.80;;;;;;;;;;5032363;28;20034;-76
2022/06/11 06:33:52;;;;;;;4.38;1.08;;;;;;;;;;5038267;28;20029;-75
2022/06/11 06:36:18;;;;;;;3.83;1.25;;;;;;;;;;5034145;28;20813;-76
2022/06/11 06:38:45;;;;;;;6.32;1.45;;;;;;;;;;5040163;28;20561;-75
2022/06/11 06:41:11;;;;;;;7.32;1.27;;;;;;;;;;5040609;28;20036;-75
2022/06/11 06:43:37;;;;;;;6.38;1.42;;;;;;;;;;5037141;28;20037;-75
2022/06/11 06:46:04;;;;;;;6.85;0.90;;;;;;;;;;5037341;28;20033;-76
2022/06/11 06:48:30;;;;;;;5.05;1.35;;;;;;;;;;5040236;28;20033;-75
2022/06/11 06:50:56;;;;;;;4.78;1.40;;;;;;;;;;5043017;28;20394;-76
2022/06/11 06:53:23;;;;;;;3.75;1.20;;;;;;;;;;5038435;28;20033;-76
2022/06/11 06:55:49;;;;;;;3.88;0.95;;;;;;;;;;5040656;28;20115;-76
2022/06/11 06:58:16;;;;;;;3.35;1.15;;;;;;;;;;5034436;28;20030;-75
2022/06/11 07:00:42;;;;;;;6.38;1.20;;;;;;;;;;5037545;28;20067;-75
2022/06/11 07:03:08;;;;;;;5.47;1.00;;;;;;;;;;5038223;28;20099;-75
2022/06/11 07:05:36;;;;;;;4.45;1.23;;;;;;;;;;5038625;28;20407;-76
2022/06/11 07:08:02;;;;;;;8.85;1.20;;;;;;;;;;5040762;28;20935;-76
2022/06/11 07:10:28;;;;;;;4.28;1.05;;;;;;;;;;5038557;28;20486;-76
2022/06/11 07:12:54;;;;;;;7.43;1.20;;;;;;;;;;5035696;28;20104;-76
2022/06/11 07:15:21;;;;;;;5.93;1.05;;;;;;;;;;5040505;28;20048;-78
2022/06/11 07:17:58;;;;;;;7.25;1.50;;;;;;;;;;5038912;28;20024;-78
2022/06/11 07:20:26;;;;;;;5.65;1.40;;;;;;;;;;5039253;28;20046;-78
2022/06/11 07:22:55;;;;;;;4.00;1.10;;;;;;;;;;5037427;28;20037;-78
2022/06/11 07:25:21;;;;;;;4.32;1.27;;;;;;;;;;5036932;28;20045;-77
2022/06/11 07:27:49;;;;;;;3.83;0.75;;;;;;;;;;5034417;28;20029;-77
2022/06/11 07:30:17;;;;;;;4.78;0.98;;;;;;;;;;5035474;28;20164;-76
2022/06/11 07:32:45;;;;;;;2.47;0.90;;;;;;;;;;5034287;28;20025;-76
2022/06/11 07:35:12;;;;;;;3.67;0.80;;;;;;;;;;5039566;28;20030;-77
2022/06/11 07:37:39;;;;;;;5.25;1.20;;;;;;;;;;5038714;28;20033;-77
2022/06/11 07:40:06;;;;;;;6.53;0.85;;;;;;;;;;5034930;28;20051;-77
2022/06/11 07:42:32;;;;;;;5.78;0.90;;;;;;;;;;5040378;28;20041;-77
2022/06/11 07:44:58;;;;;;;4.47;1.10;;;;;;;;;;5036967;28;20611;-76
2022/06/11 07:50:11;;;;;;;5.10;1.00;;;;;;;;;;5038735;28;20047;-76
2022/06/11 07:52:37;;;;;;;4.35;0.85;;;;;;;;;;5033695;28;20029;-77
2022/06/11 07:55:03;;;;;;;3.75;1.00;;;;;;;;;;5046727;28;20721;-76
2022/06/11 07:57:29;;;;;;;5.45;1.25;;;;;;;;;;5038360;28;20517;-76
2022/06/11 07:59:55;;;;;;;7.35;1.10;;;;;;;;;;5035315;28;20029;-76
2022/06/11 08:02:22;;;;;;;3.33;0.85;;;;;;;;;;5041057;28;20033;-76
2022/06/11 08:04:48;;;;;;;2.70;0.98;;;;;;;;;;5041205;28;20748;-76
2022/06/11 08:07:14;;;;;;;3.85;1.20;;;;;;;;;;5037073;28;20043;-77
2022/06/11 08:09:40;;;;;;;5.63;0.80;;;;;;;;;;5035743;28;20113;-77
2022/06/11 08:12:06;;;;;;;4.78;0.90;;;;;;;;;;5031742;28;20104;-76
2022/06/11 08:14:32;;;;;;;3.35;1.00;;;;;;;;;;5034881;28;20045;-76
2022/06/11 08:16:58;;;;;;;4.47;1.00;;;;;;;;;;5035993;28;20029;-76
2022/06/11 08:19:24;;;;;;;3.65;1.10;;;;;;;;;;5033147;28;20426;-76
2022/06/11 08:21:50;;;;;;;5.03;0.90;;;;;;;;;;5031624;28;20041;-76
2022/06/11 08:24:16;;;;;;;6.68;0.90;;;;;;;;;;5032718;28;20056;-76
2022/06/11 08:26:42;;;;;;;4.90;1.00;;;;;;;;;;5046113;28;20785;-76
2022/06/11 08:29:08;;;;;;;6.38;1.20;;;;;;;;;;5039540;28;20073;-76
2022/06/11 08:31:34;;;;;;;9.07;1.27;;;;;;;;;;5036501;28;20030;-76
2022/06/11 08:34:00;;;;;;;4.47;1.00;;;;;;;;;;5033099;28;20088;-76
2022/06/11 08:36:26;;;;;;;3.92;1.13;;;;;;;;;;5030529;28;20108;-76
2022/06/11 08:38:52;;;;;;;6.18;1.00;;;;;;;;;;5048041;28;20040;-76
2022/06/11 08:41:20;;;;;;;6.15;1.45;;;;;;;;;;5038416;28;20032;-77
2022/06/11 08:43:52;;;;;;;4.78;1.13;;;;;;;;;;5033125;28;20112;-76
2022/06/11 08:46:19;;;;;;;2.90;0.80;;;;;;;;;;5032905;28;20075;-77
2022/06/11 08:48:47;;;;;;;6.68;0.90;;;;;;;;;;5033942;28;20698;-77
2022/06/11 08:51:13;;;;;;;5.00;0.90;;;;;;;;;;5032925;28;20041;-76
2022/06/11 08:53:39;;;;;;;4.45;0.80;;;;;;;;;;5032357;28;20033;-76
2022/06/11 08:56:10;;;;;;;5.07;0.93;;;;;;;;;;5033878;28;20029;-76
2022/06/11 08:58:45;;;;;;;4.95;1.10;;;;;;;;;;5031465;28;20132;-76
2022/06/11 09:01:34;;;;;;;6.93;1.00;;;;;;;;;;5033083;28;20440;-77
2022/06/11 09:04:19;;;;;;;4.85;1.10;;;;;;;;;;5035119;28;20064;-77
2022/06/11 09:06:48;;;;;;;3.88;0.73;;;;;;;;;;5034520;28;20030;-76
2022/06/11 09:09:40;;;;;;;3.25;1.00;;;;;;;;;;5029938;28;20045;-77
2022/06/11 09:12:16;;;;;;;8.38;0.93;;;;;;;;;;5025623;28;20048;-76
2022/06/11 09:15:17;;;;;;;5.20;1.00;;;;;;;;;;5046982;28;20033;-76
2022/06/11 09:17:43;;;;;;;3.25;0.88;;;;;;;;;;5022557;28;20041;-76
2022/06/11 09:20:12;;;;;;;4.78;1.45;;;;;;;;;;5030212;28;20041;-76
2022/06/11 09:22:53;;;;;;;4.78;1.10;;;;;;;;;;5041578;28;20070;-76
2022/06/11 09:25:29;;;;;;;4.78;1.20;;;;;;;;;;5036874;28;20037;-76
2022/06/11 09:28:13;;;;;;;6.88;1.10;;;;;;;;;;5029946;28;20030;-76
2022/06/11 09:30:41;;;;;;;7.18;1.42;;;;;;;;;;5033343;28;20404;-76
2022/06/11 09:33:17;;;;;;;5.97;1.00;;;;;;;;;;5035261;28;20030;-76
2022/06/11 09:35:50;;;;;;;4.80;0.95;;;;;;;;;;5029068;28;20995;-77
2022/06/11 09:38:19;;;;;;;5.85;1.45;;;;;;;;;;5039318;28;20115;-77
2022/06/11 09:40:49;;;;;;;6.85;1.10;;;;;;;;;;5030798;28;20036;-76
2022/06/11 09:43:34;;;;;;;2.97;0.80;;;;;;;;;;5041455;28;20116;-77
2022/06/11 09:46:18;;;;;;;3.97;0.80;;;;;;;;;;5040347;28;20041;-77
2022/06/11 09:48:44;;;;;;;3.63;0.70;;;;;;;;;;5040737;28;20119;-77
2022/06/11 09:51:29;;;;;;;4.30;0.85;;;;;;;;;;5039457;28;20033;-77
2022/06/11 09:54:11;;;;;;;3.70;0.80;;;;;;;;;;5040148;28;20029;-76
2022/06/11 09:56:43;;;;;;;4.63;0.85;;;;;;;;;;5035362;28;20043;-77
2022/06/11 09:59:23;;;;;;;6.85;1.25;;;;;;;;;;5037542;28;20032;-77
2022/06/11 10:01:51;;;;;;;2.90;0.80;;;;;;;;;;5038308;28;20026;-77
2022/06/11 10:04:19;;;;;;;3.58;0.80;;;;;;;;;;5035737;28;20040;-76
2022/06/11 10:06:48;;;;;;;5.00;0.75;;;;;;;;;;5039718;28;20032;-76
2022/06/11 10:09:20;;;;;;;2.55;0.80;;;;;;;;;;5050604;28;20745;-76
2022/06/11 10:11:52;;;;;;;3.80;0.82;;;;;;;;;;5034629;28;20536;-76
2022/06/11 10:14:30;;;;;;;;;;;;;;;;;;5041336;28;20032;-75
2022/06/11 10:17:00;;;;;;;5.75;1.98;;;;;;;;;;5034691;28;20657;-76
2022/06/11 10:19:26;;;;;;;3.38;1.00;;;;;;;;;;5035417;28;20029;-77
2022/06/11 10:21:59;;;;;;;4.38;1.02;;;;;;;;;;5034922;28;20033;-76
2022/06/11 10:24:27;;;;;;;6.53;0.70;;;;;;;;;;5038220;28;20092;-76
2022/06/11 10:27:03;;;;;;;4.65;1.08;;;;;;;;;;5035206;28;20033;-76
2022/06/11 10:29:38;;;;;;;3.72;1.17;;;;;;;;;;5037196;28;20608;-77
2022/06/11 10:32:10;;;;;;;4.75;0.82;;;;;;;;;;5038130;28;20029;-76
2022/06/11 10:34:39;;;;;;;7.70;1.00;;;;;;;;;;5036096;28;20029;-76
2022/06/11 10:37:10;;;;;;;4.43;0.80;;;;;;;;;;5041353;28;20393;-76
2022/06/11 10:39:54;;;;;;;2.85;0.88;;;;;;;;;;5038446;28;20402;-76
2022/06/11 10:42:20;;;;;;;3.70;0.80;;;;;;;;;;5035965;28;20472;-77
2022/06/11 10:44:51;;;;;;;5.88;0.80;;;;;;;;;;5039749;28;20043;-77
2022/06/11 10:47:37;;;;;;;3.85;0.80;;;;;;;;;;5038920;28;20046;-77
2022/06/11 10:50:09;;;;;;;3.58;1.10;;;;;;;;;;5042318;28;20070;-77
2022/06/11 10:52:44;;;;;;;4.70;0.80;;;;;;;;;;5033471;28;20021;-77
2022/06/11 10:55:14;;;;;;;4.32;1.05;;;;;;;;;;5033242;28;20064;-77
2022/06/11 10:57:40;;;;;;;3.13;0.80;;;;;;;;;;5035590;28;20026;-76
2022/06/11 11:00:07;;;;;;;4.85;0.70;;;;;;;;;;5036238;28;20029;-77
2022/06/11 11:02:36;;;;;;;4.63;0.80;;;;;;;;;;5043536;28;20033;-76
2022/06/11 11:05:07;;;;;;;7.85;0.80;;;;;;;;;;5042887;28;20036;-77
2022/06/11 11:07:53;;;;;;;6.57;1.20;;;;;;;;;;5034239;28;20033;-76
2022/06/11 11:10:28;;;;;;;3.45;0.90;;;;;;;;;;5029406;28;20046;-76
2022/06/11 11:12:57;;;;;;;3.15;0.70;;;;;;;;;;5040855;28;20138;-76
2022/06/11 11:15:26;;;;;;;3.55;0.88;;;;;;;;;;5036963;28;20088;-76
2022/06/11 11:17:54;;;;;;;4.00;0.88;;;;;;;;;;5036611;28;20038;-77
2022/06/11 11:20:30;;;;;;;3.50;0.70;;;;;;;;;;5037045;28;20113;-76
2022/06/11 11:22:57;;;;;;;5.35;0.70;;;;;;;;;;5031284;28;20471;-77
2022/06/11 11:25:40;;;;;;;7.30;1.45;;;;;;;;;;5046256;28;20046;-77
2022/06/11 11:28:07;;;;;;;5.85;0.88;;;;;;;;;;5038535;28;20037;-77
2022/06/11 11:30:38;;;;;;;7.30;1.00;;;;;;;;;;5036943;28;20048;-77
2022/06/11 11:33:19;;;;;;;2.70;0.83;;;;;;;;;;5033420;28;20029;-77
2022/06/11 11:35:45;;;;;;;3.65;0.98;;;;;;;;;;5034505;28;20036;-77
2022/06/11 11:38:11;;;;;;;3.97;0.77;;;;;;;;;;5039311;28;20040;-77
2022/06/11 11:40:57;;;;;;;5.30;0.90;;;;;;;;;;5033584;28;20912;-77
2022/06/11 11:43:24;;;;;;;5.43;1.10;;;;;;;;;;5031041;28;20045;-77
2022/06/11 11:46:22;;;;;;;5.55;1.08;;;;;;;;;;5041615;28;20040;-77
2022/06/11 11:48:56;;;;;;;5.53;0.93;;;;;;;;;;5009095;28;20582;-77
2022/06/11 11:51:25;;;;;;;7.13;0.73;;;;;;;;;;5042315;28;20394;-77
2022/06/11 11:53:54;;;;;;;4.93;0.85;;;;;;;;;;5040250;28;20026;-77
2022/06/11 11:56:32;;;;;;;3.63;1.20;;;;;;;;;;5043198;28;20132;-77
2022/06/11 11:59:05;;;;;;;3.70;0.85;;;;;;;;;;5036482;28;20462;-77
2022/06/11 12:01:31;;;;;;;2.67;0.70;;;;;;;;;;5037998;28;20126;-77
2022/06/11 12:04:19;;;;;;;2.92;0.80;;;;;;;;;;5036826;28;20041;-77
2022/06/11 12:06:48;;;;;;;2.10;0.65;;;;;;;;;;5031607;28;20065;-77
2022/06/11 12:09:22;;;;;;;3.47;0.98;;;;;;;;;;5039497;28;20112;-77
2022/06/11 12:12:07;;;;;;;3.00;0.70;;;;;;;;;;5031233;28;20106;-77
2022/06/11 12:14:37;;;;;;;7.07;1.08;;;;;;;;;;5033885;28;20036;-77
2022/06/11 12:17:22;;;;;;;5.20;0.70;;;;;;;;;;5042638;28;21012;-77
2022/06/11 12:19:50;;;;;;;4.28;0.85;;;;;;;;;;5035744;28;20056;-77
2022/06/11 12:22:36;;;;;;;3.90;0.70;;;;;;;;;;5032613;28;20123;-77
2022/06/11 12:25:03;;;;;;;5.10;0.75;;;;;;;;;;5035411;28;20053;-77
2022/06/11 12:27:33;;;;;;;4.05;0.60;;;;;;;;;;5030799;28;20053;-77
2022/06/11 12:30:02;;;;;;;4.95;0.70;;;;;;;;;;5040394;28;20048;-77
2022/06/11 12:32:30;;;;;;;1.75;0.60;;;;;;;;;;5037764;28;20028;-78
2022/06/11 12:34:57;;;;;;;3.97;0.70;;;;;;;;;;5034613;28;20371;-77
2022/06/11 12:37:34;;;;;;;4.05;0.70;;;;;;;;;;5035653;28;20578;-77
2022/06/11 12:40:12;;;;;;;4.88;0.70;;;;;;;;;;5033587;28;20021;-77
2022/06/11 12:42:38;;;;;;;4.22;0.73;;;;;;;;;;5038278;28;20041;-77
2022/06/11 12:45:19;;;;;;;6.10;1.10;;;;;;;;;;5040509;28;20029;-78
2022/06/11 12:47:57;;;;;;;4.85;1.00;;;;;;;;;;5041068;28;20097;-77
2022/06/11 12:50:26;;;;;;;5.72;1.02;;;;;;;;;;5045480;28;20406;-77
2022/06/11 12:52:52;;;;;;;3.15;0.65;;;;;;;;;;5037340;28;20024;-77
2022/06/11 12:55:38;;;;;;;7.88;1.02;;;;;;;;;;5047181;28;20025;-78
2022/06/11 12:58:08;;;;;;;4.28;0.80;;;;;;;;;;5030181;28;20527;-77
2022/06/11 13:00:34;;;;;;;5.55;0.90;;;;;;;;;;5035931;28;20037;-77
2022/06/11 13:03:09;;;;;;;2.67;0.70;;;;;;;;;;5033283;28;20029;-77
2022/06/11 13:05:53;;;;;;;3.42;0.73;;;;;;;;;;5035307;28;20051;-77
2022/06/11 13:08:31;;;;;;;2.55;0.88;;;;;;;;;;5041317;28;20065;-77
2022/06/11 13:11:16;;;;;;;3.28;0.75;;;;;;;;;;5042109;28;20033;-77
2022/06/11 13:13:42;;;;;;;4.95;0.80;;;;;;;;;;5037224;28;20039;-77
2022/06/11 13:16:26;;;;;;;5.65;0.82;;;;;;;;;;5037398;28;20037;-78
2022/06/11 13:18:58;;;;;;;3.28;0.80;;;;;;;;;;5038324;28;20040;-77
2022/06/11 13:21:24;;;;;;;;;;;;;;;;;;5032890;28;20071;-77
2022/06/11 13:23:59;;;;;;;2.72;0.60;;;;;;;;;;5037195;28;20350;-77
2022/06/11 13:26:35;;;;;;;4.97;0.60;;;;;;;;;;5033316;28;21047;-77
2022/06/11 13:29:19;;;;;;;5.75;0.90;;;;;;;;;;5033500;28;20049;-77
2022/06/11 13:31:52;;;;;;;3.13;0.60;;;;;;;;;;5037957;28;20371;-77
2022/06/11 13:34:31;;;;;;;3.95;0.70;;;;;;;;;;5042227;28;20029;-77
2022/06/11 13:37:16;;;;;;;3.78;0.60;;;;;;;;;;5034182;28;20029;-77
2022/06/11 13:39:48;;;;;;;3.92;0.70;;;;;;;;;;5039572;28;20462;-77
2022/06/11 13:42:14;;;;;;;3.70;0.60;;;;;;;;;;5034151;28;20045;-78
2022/06/11 13:44:40;;;;;;;4.97;0.68;;;;;;;;;;5030162;28;20033;-77
2022/06/11 13:47:06;;;;;;;4.07;0.60;;;;;;;;;;5043568;28;20489;-77
2022/06/11 13:49:44;;;;;;;2.60;0.63;;;;;;;;;;5038307;28;20044;-77
2022/06/11 13:52:13;;;;;;;2.30;0.60;;;;;;;;;;5038842;28;20064;-77
2022/06/11 13:57:39;;;;;;;3.55;0.43;;;;;;;;;;5037510;28;20906;-77
2022/06/11 14:00:18;;;;;;;2.17;0.60;;;;;;;;;;5034326;28;20030;-78
2022/06/11 14:02:59;;;;;;;1.25;0.57;;;;;;;;;;5034023;28;20100;-77
2022/06/11 14:05:28;;;;;;;4.75;0.70;;;;;;;;;;5033783;28;20061;-77
2022/06/11 14:07:55;;;;;;;3.22;0.65;;;;;;;;;;5033592;28;20029;-77
2022/06/11 14:10:21;;;;;;;2.42;0.50;;;;;;;;;;5036358;28;20044;-77
2022/06/11 14:13:01;;;;;;;4.68;0.80;;;;;;;;;;5038606;28;20021;-77
2022/06/11 14:15:29;;;;;;;4.50;0.65;;;;;;;;;;5035138;28;20072;-77
2022/06/11 14:17:55;;;;;;;2.72;0.50;;;;;;;;;;5036533;28;20029;-78
2022/06/11 14:20:21;;;;;;;1.05;0.50;;;;;;;;;;5031685;28;20383;-77
2022/06/11 14:22:52;;;;;;;2.30;0.40;;;;;;;;;;5036472;28;20075;-77
2022/06/11 14:25:38;;;;;;;2.72;0.50;;;;;;;;;;5035729;28;20053;-77
2022/06/11 14:28:17;;;;;;;1.40;0.40;;;;;;;;;;5035361;28;20025;-77
2022/06/11 14:30:46;;;;;;;4.22;0.50;;;;;;;;;;5032941;28;20045;-77
2022/06/11 14:33:12;;;;;;;2.10;0.40;;;;;;;;;;5031098;28;20738;-77
2022/06/11 14:35:40;;;;;;;2.13;0.50;;;;;;;;;;5035154;28;20033;-78
2022/06/11 14:38:21;;;;;;;1.42;0.40;;;;;;;;;;5040352;28;21907;-77
2022/06/11 14:40:51;;;;;;;2.67;0.60;;;;;;;;;;5035034;28;20083;-77
2022/06/11 14:43:21;;;;;;;2.70;0.50;;;;;;;;;;5035085;28;20029;-77
2022/06/11 14:45:52;;;;;;;3.10;0.40;;;;;;;;;;5043550;28;20425;-78
2022/06/11 14:48:23;;;;;;;4.70;0.50;;;;;;;;;;5031877;28;20025;-78
2022/06/11 14:51:09;;;;;;;1.90;0.40;;;;;;;;;;5043449;28;20037;-78
2022/06/11 14:53:53;;;;;;;3.33;0.60;;;;;;;;;;5033191;28;20045;-78
2022/06/11 14:56:38;;;;;;;1.88;0.50;;;;;;;;;;5037335;28;20679;-77
2022/06/11 14:59:24;;;;;;;1.58;0.50;;;;;;;;;;5032080;28;20095;-78
2022/06/11 15:02:13;;;;;;;2.47;0.50;;;;;;;;;;5032778;28;20095;-78
2022/06/11 15:04:45;;;;;;;2.60;0.30;;;;;;;;;;5047758;28;20021;-78
2022/06/11 15:07:10;;;;;;;;;;;;;;;;;;5037716;28;20037;-78
2022/06/11 15:09:47;;;;;;;1.73;0.30;;;;;;;;;;5036402;28;19920;-78
2022/06/11 15:12:16;;;;;;;3.17;0.22;;;;;;;;;;5037891;28;20606;-78